KMVE/MVE METAR and TAF weather

Enter ICAO airport designator
Station Type Date Time Source
KMVE METAR 2020/11/27 14:55 UTC NOAA

KMVE 271455Z AUTO 30003KT 10SM CLR M04/M08 A3017 RMK AO2


Station Type Date Time Source
KMVE Decoded METAR 2020/11/27 14:55 UTC NOAA

Montevideo, Montevideo-Chippewa County Airport, MN, United States (KMVE) 44-58N 095-43W
Nov 27, 2020 - 09:55 AM EST / 2020.11.27 1455 UTC
Wind: from the WNW (300 degrees) at 3 MPH (3 KT):0
Visibility: 10 mile(s):0
Sky conditions: clear
Temperature: 24 F (-4 C)
Dew Point: 17 F (-8 C)
Relative Humidity: 73%
Pressure (altimeter): 30.17 in. Hg (1021 hPa)
ob: KMVE 271455Z AUTO 30003KT 10SM CLR M04/M08 A3017 RMK AO2
cycle: 15

Station Type Date Time Source
KMVE TAF UTC NOAA

Error!

Example: see airport list